Hermagor, Austria

10:26 AM CEST on August 30, 2016 (GMT +0200)
Presseggersee | | Change Station

Elev 1843 ft 46.63 °N, 13.45 °E | Updated 8 minutes ago

Scattered Clouds
Scattered Clouds
63.9 °F
Feels Like 63.9 °F
N
0.0
Wind Variable Wind from NNW
Gusts 5.0 mph

Today
High -- | Low -- °F
--% Chance of Precip.
Yesterday
High -- | Low -- °F
Precip. -- in
Pressure 30.24 in
Visibility 6.2 miles
Clouds Few 700 ft
Scattered Clouds 1300 ft
Dew Point 46 °F
Humidity 52%
Rainfall 0.00 in
Snow Depth Not available.
6:24 AM 7:49 PM
Waning Crescent, 4% visible
METAR LOWK 300820Z VRB02KT 9999 FEW007 SCT013 19/15 Q1024 NOSIG
Pressure 30.24 in
Visibility 6.2 miles
Clouds Few 700 ft
Scattered Clouds 1300 ft
Dew Point 46 °F
Humidity 52%
Rainfall 0.00 in
Snow Depth Not available.
6:24 AM 7:49 PM
Waning Crescent, 4% visible
METAR LOWK 300820Z VRB02KT 9999 FEW007 SCT013 19/15 Q1024 NOSIG

10-Day Weather Forecast

×

Almanac

Astronomy

Aug. 30, 2016 Rise Set
Actual Time
Civil Twilight
Nautical Twilight
Astronomical Twilight
Moon
Length of Visible Light
Length of Day
Tomorrow will be .
, % of the Moon is Illuminated

Today's Extremes

Country Highs Country Lows

Community

WunderPhotos

Upload Photos

1,935,795 photos uploaded!

WunderBlog® & News

Nearby

Air Quality

  Air Quality AQ Index Pollutant
Not available.

Snow Depth

Station Depth Elevation

Earthquake Activity

City Distance Mag. Time & Date
Minimum magnitude displayed is 2.5.

Coastal Water Temperatures

Place Temperature

Stations

Nearby Weather Stations

Station Location Temp. Windchill Dew Point Humidity Wind Precip. Elev Updated Type